Terminal Aerodrome Forecast
Issued by NWS

Home | Current Version | Previous Version | Graphics & Text | Print | Product List | Glossary On
Versions: 1 2 3 4 5 6 7 8 9 10 11 12 13 14 15 16 17
000
FTUS43 KOAX 281700
TAFCDR
TAF
KCDR 281738Z 2818/2918 06012G22KT P6SM OVC013
     FM290300 03010KT P6SM -SHRA SCT015 BKN025
     FM290600 05008KT 3SM -SHRA SCT007 BKN015
     FM291600 02009KT P6SM VCSH SCT015 BKN025=

USA.gov is the U.S. government's official web portal to all federal, state and local government web resources and services.